Airfield :
LOGIN :

Register | Disclaimer

   EN    FR    IT 

 










Legend :    VFR   Marginal VFR   IFR   Intensive IFR   Very Intensive IFR
Visi :
Ceiling :
>= 8 km
>= 3000ft
5 to 8 km
1000 to 3000 ft
1500m to 5 km
500 to 1000 ft
800 to 1500m
200 to 500 ft
< 800m
< 200 ft
Symbols :   Thunderstorms  Fog  Heavy snow  Heavy precipitations  Wind > 20 kt
SIGMETs :     Misc.  Thunderstorms  Icing  Turbulence  Mountain Waves  Volcanic Ashes






- Airport Elevation : 650 ft
- IATA code : ZJI


LSZL - Locarno

CURRENT METAR :
  • 160450Z AUTO 03005KT 9999NDV NCD 09/09 Q1016 RMK

EXPIRED METARs :
  • 160420Z AUTO 06004KT 9999NDV NCD 09/09 Q1016 RMK
  • 160350Z AUTO 06005KT 010V120 9999NDV NCD 08/08 Q1016 RMK
  • 160320Z AUTO 06005KT 020V110 9999NDV NCD 09/09 Q1015 RMK
  • 160250Z AUTO 06004KT 020V110 9999NDV NCD 10/10 Q1015 RMK
  • 160220Z AUTO 03004KT 350V070 9999NDV NCD 10/09 Q1015 RMK
  • 160150Z AUTO 08005KT 9999NDV NCD 10/10 Q1015 RMK

TAF TAF LSZL
Valid from the 16 at 03:00 until the 16 at 12:00 UTC


160225Z 1603/1612 08007KT CAVOK



MET'MAP, your aeronautical weather chart ! - Copyright ORBIFLY December 2007 - Disclaimer

ORBIFLY MET'MAP TEAM :

Programming & Development : Alexandra Zaïnal
Concept & Development : Baudouin d'Aumeries
Co-Development & Prog : Marc-Olivier Méhu
Technical & hardware support : Manuel Goepfert

Contact : metmap@orbifly.com




SOURCES & CREDITS :

   NOAA